Time;durP1;ratioP1;P1;durP2;ratioP2;P2;SDS_P1;SDS_P2;PMS_P1;PMS_P2;Temp;Humidity;BMP_temperature;BMP_pressure;BME280_temperature;BME280_humidity;BME280_pressure;Samples;Min_cycle;Max_cycle;Signal;HPM_P1;HPM_P2
2020/12/07 00:00:43;;;;;;;;;;;;;;;;;;;;;
2020/12/07 00:04:10;;;;;;;;;;;;;;;;;;;;;
2020/12/07 00:10:04;;;;;;;44.97;23.02;;;5.00;99.90;;;;;;5073073;28;20043;-93
2020/12/07 00:12:36;;;;;;;40.72;22.33;;;5.00;99.90;;;;;;5043945;28;20041;-94
2020/12/07 00:15:07;;;;;;;40.38;23.13;;;5.00;99.90;;;;;;5036196;28;20037;-93
2020/12/07 00:18:11;;;;;;;;;;;;;;;;;;;;;
2020/12/07 00:20:45;;;;;;;37.25;21.70;;;5.00;99.90;;;;;;5100454;28;20038;-94
2020/12/07 00:23:11;;;;;;;;;;;5.00;99.90;;;;;;5091589;28;20039;-94
2020/12/07 00:25:51;;;;;;;35.65;21.08;;;5.00;99.90;;;;;;5098482;28;19915;-92
2020/12/07 00:28:43;;;;;;;37.47;22.27;;;5.10;99.90;;;;;;5116061;28;20111;-92
2020/12/07 00:31:39;;;;;;;;;;;;;;;;;;;;;
2020/12/07 00:34:21;;;;;;;37.25;20.52;;;5.00;99.90;;;;;;5111482;28;20054;-92
2020/12/07 00:37:01;;;;;;;;;;;;;;;;;;;;;
2020/12/07 00:39:40;;;;;;;45.53;25.38;;;5.10;99.90;;;;;;5117708;28;20459;-93
2020/12/07 00:42:13;;;;;;;37.78;22.60;;;5.10;99.90;;;;;;5099396;28;20437;-92
2020/12/07 00:47:49;;;;;;;39.35;23.88;;;5.10;99.90;;;;;;5102094;28;20039;-93
2020/12/07 00:50:20;;;;;;;43.55;26.73;;;5.10;99.90;;;;;;5099103;28;20027;-93
2020/12/07 00:52:46;;;;;;;44.65;25.00;;;5.10;99.90;;;;;;5099061;28;20075;-92
2020/12/07 00:55:18;;;;;;;43.97;25.10;;;5.10;99.90;;;;;;5097676;28;20028;-92
2020/12/07 00:57:46;;;;;;;41.35;25.60;;;5.10;99.90;;;;;;5099022;28;20027;-92
2020/12/07 01:00:17;;;;;;;43.03;24.40;;;5.10;99.90;;;;;;5098339;28;20031;-92
2020/12/07 01:02:45;;;;;;;36.50;23.17;;;5.00;99.90;;;;;;5078262;28;20067;-92
2020/12/07 01:05:11;;;;;;;43.78;24.95;;;5.00;99.90;;;;;;5094295;28;20028;-92
2020/12/07 01:07:45;;;;;;;39.80;24.58;;;5.00;99.90;;;;;;5097814;28;20444;-93
2020/12/07 01:10:13;;;;;;;39.58;24.10;;;5.00;99.90;;;;;;5098040;28;20032;-94
2020/12/07 01:15:34;;;;;;;39.55;23.77;;;5.00;99.90;;;;;;5108775;28;20024;-92
2020/12/07 01:18:17;;;;;;;41.97;25.27;;;5.00;99.90;;;;;;5098125;28;20549;-94
2020/12/07 01:20:55;;;;;;;;;;;;;;;;;;;;;
2020/12/07 01:23:44;;;;;;;43.30;26.23;;;4.90;99.90;;;;;;5096178;28;20042;-94
2020/12/07 01:26:14;;;;;;;39.17;23.80;;;4.90;99.90;;;;;;5103168;28;20051;-94
2020/12/07 01:28:47;;;;;;;44.90;26.77;;;4.90;99.90;;;;;;5076354;28;20464;-94
2020/12/07 01:31:40;;;;;;;47.22;29.52;;;4.90;99.90;;;;;;5084729;28;20055;-93
2020/12/07 01:34:32;;;;;;;;;;;;;;;;;;;;;
2020/12/07 01:37:20;;;;;;;51.15;29.73;;;4.70;99.90;;;;;;5050904;28;20461;-93
2020/12/07 01:39:56;;;;;;;;;;;;;;;;;;;;;
2020/12/07 01:43:02;;;;;;;51.08;30.10;;;4.70;99.90;;;;;;5076562;28;20028;-92
2020/12/07 01:45:28;;;;;;;57.85;33.88;;;4.60;99.90;;;;;;5057961;28;20033;-94
2020/12/07 01:48:03;;;;;;;52.95;32.78;;;4.60;99.90;;;;;;5065460;28;20498;-93
2020/12/07 01:50:45;;;;;;;53.25;32.25;;;4.60;99.90;;;;;;5095841;28;20025;-94
2020/12/07 01:53:16;;;;;;;56.08;33.33;;;4.50;99.90;;;;;;5077317;28;20044;-93
2020/12/07 01:55:45;;;;;;;52.40;31.58;;;4.50;99.90;;;;;;5077717;28;20089;-93
2020/12/07 01:58:22;;;;;;;52.45;32.33;;;4.50;99.90;;;;;;5077876;28;20024;-92
2020/12/07 02:00:54;;;;;;;50.72;31.85;;;4.50;99.90;;;;;;5077815;28;20032;-92
2020/12/07 02:03:21;;;;;;;53.42;31.25;;;4.50;99.90;;;;;;5077712;28;20035;-93
2020/12/07 02:05:58;;;;;;;51.65;31.20;;;4.50;99.90;;;;;;5075981;28;20480;-93
2020/12/07 02:08:27;;;;;;;54.28;31.63;;;4.50;99.90;;;;;;5077578;28;20057;-93
2020/12/07 02:10:57;;;;;;;49.38;30.52;;;4.50;99.90;;;;;;5091527;28;20036;-93
2020/12/07 02:13:38;;;;;;;54.47;32.03;;;4.50;99.90;;;;;;5077077;28;20036;-95
2020/12/07 02:16:26;;;;;;;57.42;33.72;;;4.50;99.90;;;;;;5077348;28;20456;-94
2020/12/07 02:19:07;;;;;;;;;;;;;;;;;;;;;
2020/12/07 02:21:38;;;;;;;55.33;34.08;;;4.50;99.90;;;;;;5094642;28;20034;-94
2020/12/07 02:24:31;;;;;;;54.30;32.60;;;4.50;99.90;;;;;;5077378;28;20056;-96
2020/12/07 02:27:09;;;;;;;59.83;32.83;;;4.50;99.90;;;;;;5077241;28;20114;-94
2020/12/07 02:29:44;;;;;;;52.35;31.02;;;4.50;99.90;;;;;;5078056;28;20038;-94
2020/12/07 02:32:12;;;;;;;59.42;33.53;;;4.50;99.90;;;;;;5076851;28;20040;-94
2020/12/07 02:34:43;;;;;;;62.53;36.50;;;4.50;99.90;;;;;;5077011;28;20146;-94
2020/12/07 02:37:25;;;;;;;;;;;;;;;;;;;;;
2020/12/07 02:40:12;;;;;;;66.63;36.40;;;4.50;99.90;;;;;;5095038;28;20032;-94
2020/12/07 02:42:48;;;;;;;62.10;35.63;;;4.50;99.90;;;;;;5110664;28;20075;-94
2020/12/07 02:45:28;;;;;;;;;;;;;;;;;;;;;
2020/12/07 02:48:03;;;;;;;64.82;35.45;;;4.50;99.90;;;;;;5095212;28;20383;-95
2020/12/07 02:50:31;;;;;;;65.60;35.95;;;4.50;99.90;;;;;;5095019;28;20464;-94
2020/12/07 02:52:59;;;;;;;62.38;36.33;;;4.50;99.90;;;;;;5076740;28;20052;-94
2020/12/07 02:55:50;;;;;;;59.15;34.10;;;4.50;99.90;;;;;;5077387;28;20068;-95
2020/12/07 02:58:33;;;;;;;69.90;38.03;;;4.50;99.90;;;;;;5076721;28;20132;-93
2020/12/07 03:04:05;;;;;;;63.58;36.13;;;4.50;99.90;;;;;;5110630;27;20763;-85
2020/12/07 03:06:31;;;;;;;73.00;40.08;;;4.50;99.90;;;;;;5092986;28;20027;-86
2020/12/07 03:08:56;;;;;;;70.57;37.92;;;4.50;99.90;;;;;;5093227;28;20024;-86
2020/12/07 03:11:23;;;;;;;69.50;39.05;;;4.50;99.90;;;;;;5111005;28;20043;-87
2020/12/07 03:13:48;;;;;;;66.50;36.78;;;4.60;99.90;;;;;;5092824;28;20031;-85
2020/12/07 03:16:14;;;;;;;59.70;34.75;;;4.50;99.90;;;;;;5092697;28;20098;-86
2020/12/07 03:18:40;;;;;;;62.13;35.97;;;4.60;99.90;;;;;;5111282;28;20023;-85
2020/12/07 03:21:06;;;;;;;65.45;36.70;;;4.60;99.90;;;;;;5092884;28;20023;-84
2020/12/07 03:23:32;;;;;;;64.30;36.53;;;4.60;99.90;;;;;;5110569;28;20039;-85
2020/12/07 03:25:58;;;;;;;59.83;35.28;;;4.60;99.90;;;;;;5092609;28;20069;-85
2020/12/07 03:28:23;;;;;;;61.75;35.70;;;4.60;99.90;;;;;;5110484;28;20023;-85
2020/12/07 03:30:49;;;;;;;61.53;36.13;;;4.70;99.90;;;;;;5110642;28;20475;-86
2020/12/07 03:33:14;;;;;;;60.88;35.67;;;4.60;99.90;;;;;;5111030;28;20042;-86
2020/12/07 03:35:40;;;;;;;59.75;34.95;;;4.60;99.90;;;;;;5091993;28;20056;-86
2020/12/07 03:38:06;;;;;;;62.38;36.70;;;4.60;99.90;;;;;;5092214;28;20027;-86
2020/12/07 03:40:33;;;;;;;66.15;38.40;;;4.60;99.90;;;;;;5091982;28;20066;-85
2020/12/07 03:42:58;;;;;;;63.08;35.90;;;4.60;99.90;;;;;;5091696;28;20050;-85
2020/12/07 03:45:24;;;;;;;64.35;39.53;;;4.60;99.90;;;;;;5091751;28;20020;-84
2020/12/07 03:47:49;;;;;;;60.47;35.15;;;4.60;99.90;;;;;;5109961;28;20062;-86
2020/12/07 03:50:15;;;;;;;65.93;37.85;;;4.60;99.90;;;;;;5109565;28;20088;-86
2020/12/07 03:52:40;;;;;;;64.22;39.97;;;4.60;99.90;;;;;;5091377;28;20099;-86
2020/12/07 03:55:06;;;;;;;63.63;38.53;;;4.60;99.90;;;;;;5091922;28;20023;-87
2020/12/07 03:57:31;;;;;;;63.45;38.75;;;4.60;99.90;;;;;;5109426;28;20035;-87
2020/12/07 03:59:57;;;;;;;63.20;36.33;;;4.60;99.90;;;;;;5091336;28;20024;-87
2020/12/07 04:02:22;;;;;;;58.38;35.65;;;4.60;99.90;;;;;;5090922;28;20048;-86
2020/12/07 04:04:53;;;;;;;61.60;34.60;;;4.60;99.90;;;;;;5091704;28;20032;-87
2020/12/07 04:07:18;;;;;;;55.38;34.30;;;4.70;99.90;;;;;;5109407;28;20027;-87
2020/12/07 04:09:44;;;;;;;57.75;34.05;;;4.70;99.90;;;;;;5091212;28;20474;-87
2020/12/07 04:12:09;;;;;;;49.72;30.55;;;4.70;99.90;;;;;;5091784;28;20035;-87
2020/12/07 04:14:35;;;;;;;58.55;35.08;;;4.70;99.90;;;;;;5082502;28;20056;-87
2020/12/07 04:17:01;;;;;;;59.17;36.42;;;4.70;99.90;;;;;;5095952;28;20020;-86
2020/12/07 04:19:26;;;;;;;53.63;33.83;;;4.70;99.90;;;;;;5095915;28;20028;-86
2020/12/07 04:21:52;;;;;;;59.55;36.25;;;4.70;99.90;;;;;;5077695;28;20039;-86
2020/12/07 04:24:17;;;;;;;54.95;34.40;;;4.70;99.90;;;;;;5077433;28;20425;-87
2020/12/07 04:26:43;;;;;;;54.67;33.35;;;4.70;99.90;;;;;;5077404;28;20027;-86
2020/12/07 04:29:08;;;;;;;54.58;33.25;;;4.70;99.90;;;;;;5077479;28;20024;-86
2020/12/07 04:31:34;;;;;;;49.78;31.15;;;4.70;99.90;;;;;;5077502;28;20499;-86
2020/12/07 04:34:00;;;;;;;50.33;31.30;;;4.80;99.90;;;;;;5095749;28;20024;-85
2020/12/07 04:36:25;;;;;;;52.08;31.88;;;4.80;99.90;;;;;;5095511;28;20107;-86
2020/12/07 04:38:51;;;;;;;48.00;29.67;;;4.80;99.90;;;;;;5077432;28;20127;-86
2020/12/07 04:41:16;;;;;;;53.70;31.88;;;4.80;99.90;;;;;;5077160;28;20115;-86
2020/12/07 04:43:42;;;;;;;47.30;28.58;;;4.80;99.90;;;;;;5077024;28;20067;-85
2020/12/07 04:46:09;;;;;;;47.80;29.52;;;4.80;99.90;;;;;;5077045;28;20020;-85
2020/12/07 04:48:35;;;;;;;46.38;26.92;;;4.80;99.90;;;;;;5076956;28;20062;-85
2020/12/07 04:51:01;;;;;;;53.28;32.03;;;4.80;99.90;;;;;;5077507;28;20023;-86
2020/12/07 04:53:27;;;;;;;49.80;31.65;;;4.80;99.90;;;;;;5095122;28;20024;-86
2020/12/07 04:55:57;;;;;;;54.20;32.38;;;4.80;99.90;;;;;;5076843;28;20016;-87
2020/12/07 04:58:24;;;;;;;49.65;30.05;;;4.80;99.90;;;;;;5094730;28;20101;-85
2020/12/07 05:00:50;;;;;;;49.40;28.52;;;4.80;99.90;;;;;;5094946;28;20020;-84
2020/12/07 05:03:15;;;;;;;52.40;30.95;;;4.80;99.90;;;;;;5076556;28;20063;-85
2020/12/07 05:05:41;;;;;;;52.08;31.08;;;4.80;99.90;;;;;;5076872;28;20020;-87
2020/12/07 05:08:07;;;;;;;53.70;30.02;;;4.80;99.90;;;;;;5076891;28;20055;-86
2020/12/07 05:10:39;;;;;;;50.05;29.88;;;4.80;99.90;;;;;;5076811;28;20485;-85
2020/12/07 05:13:25;;;;;;;49.63;30.52;;;4.90;99.90;;;;;;5094839;28;20055;-85
2020/12/07 05:15:51;;;;;;;53.00;32.40;;;4.90;99.90;;;;;;5076744;28;20020;-85
2020/12/07 05:18:16;;;;;;;54.55;32.00;;;4.90;99.90;;;;;;5094852;28;20111;-86
2020/12/07 05:20:43;;;;;;;56.17;32.45;;;4.90;99.90;;;;;;5076759;28;20012;-85
2020/12/07 05:23:13;;;;;;;60.60;35.75;;;4.90;99.90;;;;;;5076173;28;20036;-85
2020/12/07 05:25:38;;;;;;;62.45;37.03;;;4.90;99.90;;;;;;5075598;28;20028;-85
2020/12/07 05:28:06;;;;;;;65.55;39.15;;;4.90;99.90;;;;;;5076431;28;20035;-84
2020/12/07 05:30:35;;;;;;;67.68;39.63;;;4.90;99.90;;;;;;5094442;28;20069;-86
2020/12/07 05:33:01;;;;;;;65.82;40.03;;;4.80;99.90;;;;;;5094139;28;20077;-86
2020/12/07 05:35:27;;;;;;;62.15;37.72;;;4.90;99.90;;;;;;5075798;28;20024;-85
2020/12/07 05:37:52;;;;;;;66.28;39.97;;;4.90;99.90;;;;;;5094540;28;20039;-85
2020/12/07 05:40:18;;;;;;;64.78;40.92;;;4.90;99.90;;;;;;5076163;28;20020;-86
2020/12/07 05:42:43;;;;;;;66.32;40.65;;;4.90;99.90;;;;;;5075728;28;20481;-86
2020/12/07 05:45:10;;;;;;;70.63;43.10;;;4.90;99.90;;;;;;5076164;28;20024;-86
2020/12/07 05:47:38;;;;;;;67.18;41.47;;;4.90;99.90;;;;;;5076025;28;20016;-85
2020/12/07 05:50:06;;;;;;;66.35;41.10;;;4.90;99.90;;;;;;5075821;28;20073;-85
2020/12/07 05:52:46;;;;;;;63.70;39.38;;;4.90;99.90;;;;;;5075565;28;20024;-85
2020/12/07 05:55:13;;;;;;;66.88;40.63;;;4.90;99.90;;;;;;5075702;28;20394;-85
2020/12/07 05:57:52;;;;;;;72.78;43.78;;;4.90;99.90;;;;;;5075445;28;20016;-85
2020/12/07 06:00:22;;;;;;;68.03;40.72;;;4.90;99.90;;;;;;5075423;28;20496;-85
2020/12/07 06:02:54;;;;;;;70.53;42.42;;;4.90;99.90;;;;;;5093409;28;20055;-86
2020/12/07 06:05:21;;;;;;;65.67;39.27;;;4.90;99.90;;;;;;5075717;28;20474;-86
2020/12/07 06:08:04;;;;;;;67.88;40.63;;;4.90;99.90;;;;;;5075566;28;20024;-86
2020/12/07 06:10:52;;;;;;;66.70;41.13;;;4.90;99.90;;;;;;5093717;28;20499;-85
2020/12/07 06:13:20;;;;;;;67.80;41.78;;;4.90;99.90;;;;;;5092872;28;20038;-85
2020/12/07 06:15:48;;;;;;;62.03;38.15;;;5.00;99.90;;;;;;5075671;28;20069;-85
2020/12/07 06:18:25;;;;;;;63.80;38.35;;;5.00;99.90;;;;;;5075488;28;20044;-86
2020/12/07 06:20:54;;;;;;;56.67;35.67;;;5.00;99.90;;;;;;5093308;28;20116;-86
2020/12/07 06:23:29;;;;;;;54.47;33.00;;;5.00;99.90;;;;;;5093206;28;20085;-86
2020/12/07 06:25:57;;;;;;;61.13;36.22;;;5.00;99.90;;;;;;5075336;28;20024;-86
2020/12/07 06:28:29;;;;;;;59.22;36.60;;;5.00;99.90;;;;;;5093057;28;20095;-86
2020/12/07 06:31:02;;;;;;;62.17;34.88;;;5.00;99.90;;;;;;5075065;28;20020;-85
2020/12/07 06:33:28;;;;;;;52.97;32.88;;;5.00;99.90;;;;;;5075287;28;20085;-86
2020/12/07 06:35:54;;;;;;;63.38;35.65;;;5.10;99.90;;;;;;5093083;28;20016;-86
2020/12/07 06:38:20;;;;;;;57.85;33.95;;;5.10;99.90;;;;;;5074775;28;20031;-85
2020/12/07 06:40:51;;;;;;;53.00;31.30;;;5.10;99.90;;;;;;5074967;28;20469;-85
2020/12/07 06:43:21;;;;;;;63.42;35.35;;;5.10;99.90;;;;;;5074858;28;20092;-85
2020/12/07 06:45:47;;;;;;;59.97;35.25;;;5.10;99.90;;;;;;5093122;28;20017;-85
2020/12/07 06:48:16;;;;;;;62.03;35.65;;;5.10;99.90;;;;;;5074720;28;20035;-84
2020/12/07 06:50:44;;;;;;;61.80;36.22;;;5.10;99.90;;;;;;5074864;28;20020;-86
2020/12/07 06:53:35;;;;;;;61.30;34.90;;;5.10;99.90;;;;;;5092753;28;20031;-85
2020/12/07 06:56:00;;;;;;;68.93;39.33;;;5.10;99.90;;;;;;5074768;28;20023;-85
2020/12/07 06:58:40;;;;;;;70.35;39.03;;;5.10;99.90;;;;;;5074829;28;20028;-85
2020/12/07 07:01:09;;;;;;;64.20;35.95;;;5.10;99.90;;;;;;5092755;28;20012;-85
2020/12/07 07:03:36;;;;;;;62.05;36.50;;;5.10;99.90;;;;;;5074427;28;20055;-85
2020/12/07 07:06:09;;;;;;;65.40;38.03;;;5.10;99.90;;;;;;5075265;28;20020;-88
2020/12/07 07:08:37;;;;;;;60.88;37.45;;;5.00;99.90;;;;;;5093027;28;20028;-86
2020/12/07 07:11:08;;;;;;;67.55;39.00;;;5.10;99.90;;;;;;5073442;28;20376;-86
2020/12/07 07:13:33;;;;;;;67.00;38.47;;;5.00;99.90;;;;;;5074636;28;20021;-85
2020/12/07 07:16:00;;;;;;;64.30;37.50;;;5.10;99.90;;;;;;5073087;28;20355;-86
2020/12/07 07:18:26;;;;;;;62.97;36.13;;;5.10;99.90;;;;;;5072346;28;20032;-85
2020/12/07 07:20:58;;;;;;;55.05;32.63;;;5.20;99.90;;;;;;5076929;28;20434;-84
2020/12/07 07:23:25;;;;;;;60.35;34.80;;;5.10;99.90;;;;;;5073779;28;20063;-87
2020/12/07 07:25:59;;;;;;;59.92;34.60;;;5.10;99.90;;;;;;5074604;28;20012;-87
2020/12/07 07:28:25;;;;;;;60.25;34.28;;;5.10;99.90;;;;;;5073973;28;20023;-86
2020/12/07 07:30:51;;;;;;;55.85;34.33;;;5.10;99.90;;;;;;5072785;28;20032;-85
2020/12/07 07:33:17;;;;;;;59.22;34.53;;;5.10;99.90;;;;;;5074049;28;20035;-86
2020/12/07 07:35:42;;;;;;;59.95;35.85;;;5.10;99.90;;;;;;5091286;28;20031;-86
2020/12/07 07:38:08;;;;;;;55.53;33.53;;;5.10;99.90;;;;;;5090409;28;20103;-86
2020/12/07 07:40:36;;;;;;;53.72;33.58;;;5.10;99.90;;;;;;5072426;28;20059;-86
2020/12/07 07:43:04;;;;;;;53.35;32.28;;;5.10;99.90;;;;;;5091375;28;20032;-87
2020/12/07 07:45:33;;;;;;;56.05;33.08;;;5.10;99.90;;;;;;5073871;28;20027;-86
2020/12/07 07:48:17;;;;;;;57.97;34.05;;;5.10;99.90;;;;;;5071436;28;20028;-86
2020/12/07 08:15:44;;;;;;;57.65;37.25;;;5.00;99.90;;;;;;5096326;28;20027;-87
2020/12/07 08:18:09;;;;;;;55.13;34.10;;;5.00;99.90;;;;;;5080977;28;20112;-87
2020/12/07 08:20:38;;;;;;;54.42;33.30;;;5.00;99.90;;;;;;5091949;28;20041;-87
2020/12/07 08:23:06;;;;;;;55.50;33.63;;;5.00;99.90;;;;;;5078460;28;20036;-86
2020/12/07 08:25:51;;;;;;;53.90;33.40;;;5.00;99.90;;;;;;5082370;28;20016;-87
2020/12/07 08:28:37;;;;;;;59.75;37.35;;;5.10;99.90;;;;;;5067080;28;20018;-87
2020/12/07 08:31:05;;;;;;;53.42;34.22;;;5.00;99.90;;;;;;5085852;28;20028;-87
2020/12/07 08:33:34;;;;;;;57.92;36.90;;;5.00;99.90;;;;;;5085438;28;20046;-88
2020/12/07 08:36:04;;;;;;;53.85;34.40;;;5.00;99.90;;;;;;5114286;28;20372;-89
2020/12/07 08:38:40;;;;;;;58.22;36.58;;;5.00;99.90;;;;;;5079489;28;20111;-89
2020/12/07 08:41:07;;;;;;;57.90;35.85;;;5.00;99.90;;;;;;5090093;28;20020;-89
2020/12/07 08:43:33;;;;;;;56.90;36.33;;;5.00;99.90;;;;;;5099419;28;20039;-87
2020/12/07 08:45:59;;;;;;;57.50;36.28;;;5.00;99.90;;;;;;5080522;28;20485;-88
2020/12/07 08:48:25;;;;;;;51.70;34.20;;;5.00;99.90;;;;;;5077786;28;20027;-88
2020/12/07 08:50:53;;;;;;;55.20;34.15;;;5.00;99.90;;;;;;5078162;28;20603;-88
2020/12/07 08:53:19;;;;;;;52.88;32.13;;;5.00;99.90;;;;;;5091952;28;20074;-86
2020/12/07 08:55:44;;;;;;;49.63;31.70;;;5.00;99.90;;;;;;5090203;28;20051;-88
2020/12/07 08:58:11;;;;;;;47.05;29.42;;;5.10;99.90;;;;;;5081330;28;20028;-87
2020/12/07 09:00:37;;;;;;;48.47;31.80;;;5.10;99.90;;;;;;5077822;28;20031;-88
2020/12/07 09:03:02;;;;;;;48.72;30.92;;;5.10;99.90;;;;;;5074100;28;20060;-87
2020/12/07 09:05:28;;;;;;;55.83;35.72;;;5.10;99.90;;;;;;5072874;28;20107;-87
2020/12/07 09:07:53;;;;;;;54.35;36.10;;;5.10;99.90;;;;;;5074579;28;20036;-86
2020/12/07 09:10:19;;;;;;;59.05;38.05;;;5.10;99.90;;;;;;5078958;28;20028;-85
2020/12/07 09:12:45;;;;;;;54.88;35.80;;;5.10;99.90;;;;;;5075628;28;20024;-88
2020/12/07 09:15:10;;;;;;;58.97;38.15;;;5.10;99.90;;;;;;5073814;28;20047;-86
2020/12/07 09:17:36;;;;;;;54.03;35.22;;;5.00;99.90;;;;;;5074107;28;20013;-88
2020/12/07 09:20:02;;;;;;;56.42;36.95;;;5.10;99.90;;;;;;5073243;28;20047;-89
2020/12/07 09:22:28;;;;;;;58.50;37.80;;;5.00;99.90;;;;;;5072336;28;20457;-84
2020/12/07 09:24:53;;;;;;;64.53;41.58;;;5.00;99.90;;;;;;5073025;28;20071;-84
2020/12/07 09:27:19;;;;;;;59.53;38.90;;;5.00;99.90;;;;;;5072200;28;20040;-85
2020/12/07 09:29:44;;;;;;;57.15;39.00;;;5.00;99.90;;;;;;5073114;28;20052;-87
2020/12/07 09:32:10;;;;;;;60.00;38.90;;;5.00;99.90;;;;;;5073090;28;20470;-87
2020/12/07 09:34:37;;;;;;;57.80;36.88;;;5.00;99.90;;;;;;5074294;28;20194;-86
2020/12/07 09:37:03;;;;;;;58.22;39.10;;;4.90;99.90;;;;;;5072910;28;20052;-84
2020/12/07 09:39:28;;;;;;;64.57;40.28;;;4.90;99.90;;;;;;5071092;28;20063;-84
2020/12/07 09:41:55;;;;;;;66.20;42.60;;;4.90;99.90;;;;;;5072161;28;20045;-86
2020/12/07 09:44:21;;;;;;;60.70;37.97;;;4.90;99.90;;;;;;5072407;28;20066;-87
2020/12/07 09:46:46;;;;;;;65.00;39.38;;;5.00;99.90;;;;;;5073927;28;20391;-87
2020/12/07 09:49:12;;;;;;;62.75;39.90;;;5.00;99.90;;;;;;5073203;28;20051;-86
2020/12/07 09:51:37;;;;;;;62.47;39.70;;;5.00;99.90;;;;;;5072892;28;20028;-86
2020/12/07 09:54:03;;;;;;;60.05;37.22;;;5.00;99.90;;;;;;5074385;28;20028;-88
2020/12/07 09:56:30;;;;;;;62.55;40.10;;;5.00;99.90;;;;;;5073477;28;20116;-87
2020/12/07 09:58:56;;;;;;;61.33;37.35;;;5.00;99.90;;;;;;5073857;28;20066;-86
2020/12/07 10:01:22;;;;;;;63.22;40.05;;;5.10;99.90;;;;;;5072751;28;20025;-86
2020/12/07 10:03:47;;;;;;;66.85;41.60;;;5.10;99.90;;;;;;5088330;28;20052;-88
2020/12/07 10:06:13;;;;;;;67.22;42.60;;;5.10;99.90;;;;;;5086384;28;20409;-89
2020/12/07 10:08:39;;;;;;;75.38;45.00;;;5.10;99.90;;;;;;5073098;28;20385;-85
2020/12/07 10:11:04;;;;;;;72.68;43.50;;;5.00;99.90;;;;;;5072608;28;20025;-86
2020/12/07 10:13:30;;;;;;;68.70;44.40;;;5.10;99.90;;;;;;5090474;28;20016;-85
2020/12/07 10:15:56;;;;;;;72.13;44.88;;;5.00;99.90;;;;;;5092458;28;20028;-85
2020/12/07 10:18:21;;;;;;;68.75;44.13;;;5.00;99.90;;;;;;5075463;28;20031;-85
2020/12/07 10:20:47;;;;;;;62.63;41.60;;;5.00;99.90;;;;;;5072378;28;20063;-86
2020/12/07 10:23:13;;;;;;;67.05;42.20;;;5.00;99.90;;;;;;5072057;28;20067;-86
2020/12/07 10:25:38;;;;;;;72.75;44.58;;;5.10;99.90;;;;;;5071843;28;20031;-86
2020/12/07 10:28:06;;;;;;;66.22;43.55;;;5.10;99.90;;;;;;5073101;28;20390;-86
2020/12/07 10:30:32;;;;;;;77.05;45.65;;;5.10;99.90;;;;;;5071527;28;20012;-87
2020/12/07 10:32:58;;;;;;;75.82;47.38;;;5.10;99.90;;;;;;5072172;28;20033;-89
2020/12/07 10:35:23;;;;;;;78.75;48.20;;;5.10;99.90;;;;;;5071772;28;20028;-87
2020/12/07 10:37:49;;;;;;;81.85;47.97;;;5.10;99.90;;;;;;5076905;28;20074;-86
2020/12/07 10:40:14;;;;;;;80.38;47.08;;;5.10;99.90;;;;;;5092329;28;20095;-87
2020/12/07 10:42:40;;;;;;;84.68;51.53;;;5.10;99.90;;;;;;5083709;28;20452;-87
2020/12/07 10:45:06;;;;;;;77.28;47.15;;;5.10;99.90;;;;;;5072189;28;20047;-88
2020/12/07 10:47:31;;;;;;;72.68;44.97;;;5.00;99.90;;;;;;5071772;28;20398;-87
2020/12/07 10:49:57;;;;;;;76.47;46.83;;;5.10;99.90;;;;;;5072188;28;20024;-87
2020/12/07 10:52:22;;;;;;;81.82;48.70;;;5.00;99.90;;;;;;5072657;28;20538;-88
2020/12/07 10:54:49;;;;;;;76.57;45.25;;;5.00;99.90;;;;;;5070912;28;20048;-87
2020/12/07 10:57:14;;;;;;;83.03;48.28;;;5.00;99.90;;;;;;5075270;28;20462;-86
2020/12/07 10:59:40;;;;;;;88.53;50.67;;;5.00;99.90;;;;;;5071650;28;20029;-86
2020/12/07 11:02:06;;;;;;;85.70;48.70;;;5.00;99.90;;;;;;5079168;28;20032;-85
2020/12/07 11:04:31;;;;;;;84.63;49.90;;;4.90;99.90;;;;;;5072521;28;20528;-86
2020/12/07 11:06:59;;;;;;;89.10;49.85;;;4.90;99.90;;;;;;5071729;28;20020;-86
2020/12/07 11:09:24;;;;;;;89.38;52.38;;;4.90;99.90;;;;;;5084833;28;20068;-86
2020/12/07 11:11:58;;;;;;;92.05;52.83;;;4.90;99.90;;;;;;5076012;28;20036;-86
2020/12/07 11:14:24;;;;;;;88.32;49.05;;;4.80;99.90;;;;;;5066066;28;20070;-85
2020/12/07 11:16:49;;;;;;;92.40;51.72;;;4.80;99.90;;;;;;5089693;28;20028;-86
2020/12/07 11:19:15;;;;;;;92.03;50.70;;;4.80;99.90;;;;;;5082267;28;20032;-86
2020/12/07 11:21:41;;;;;;;94.05;52.42;;;4.80;99.90;;;;;;5074472;28;20488;-85
2020/12/07 11:24:06;;;;;;;106.65;57.92;;;4.80;99.90;;;;;;5089922;28;20036;-85
2020/12/07 11:26:32;;;;;;;118.28;61.08;;;4.80;99.90;;;;;;5088262;28;20027;-86
2020/12/07 11:28:57;;;;;;;105.88;55.33;;;4.80;99.90;;;;;;5080434;28;20031;-85
2020/12/07 11:31:23;;;;;;;101.75;54.50;;;4.80;99.90;;;;;;5075055;28;20028;-85
2020/12/07 11:33:48;;;;;;;97.95;51.50;;;4.70;99.90;;;;;;5085735;28;20036;-85
2020/12/07 11:36:15;;;;;;;104.50;55.00;;;4.70;99.90;;;;;;5086672;28;20027;-84
2020/12/07 11:38:53;;;;;;;102.88;52.05;;;4.70;99.90;;;;;;5078228;28;20127;-85
2020/12/07 11:41:38;;;;;;;99.85;50.55;;;4.70;99.90;;;;;;5100668;28;20031;-86
2020/12/07 11:46:33;;;;;;;94.30;48.10;;;4.70;99.90;;;;;;5091347;28;20031;-86
2020/12/07 11:48:59;;;;;;;105.63;49.88;;;4.70;99.90;;;;;;5075680;28;20089;-90
2020/12/07 11:51:26;;;;;;;90.25;46.20;;;4.70;99.90;;;;;;5088206;28;20016;-91
2020/12/07 11:53:54;;;;;;;94.88;47.88;;;4.80;99.90;;;;;;5079109;28;20036;-91
2020/12/07 11:56:46;;;;;;;96.32;49.05;;;4.80;99.90;;;;;;5074953;28;20024;-88
2020/12/07 11:59:12;;;;;;;95.75;48.75;;;4.90;99.90;;;;;;5074993;28;20042;-87
2020/12/07 12:01:38;;;;;;;99.47;47.90;;;4.90;99.90;;;;;;5091662;28;21579;-90
2020/12/07 12:04:05;;;;;;;100.55;50.17;;;4.90;99.90;;;;;;5092333;28;20066;-89
2020/12/07 12:06:34;;;;;;;97.10;50.28;;;4.90;99.90;;;;;;5097678;28;20024;-89
2020/12/07 12:09:00;;;;;;;92.10;47.50;;;4.90;99.90;;;;;;5086857;28;20545;-89
2020/12/07 12:11:27;;;;;;;88.47;45.30;;;5.00;99.90;;;;;;5091814;28;20044;-88
2020/12/07 12:13:53;;;;;;;89.15;45.63;;;5.00;99.90;;;;;;5078160;28;20027;-88
2020/12/07 12:16:19;;;;;;;87.78;44.90;;;5.00;99.90;;;;;;5090896;28;20575;-89
2020/12/07 12:18:44;;;;;;;88.60;46.38;;;4.90;99.90;;;;;;5078239;28;20016;-90
2020/12/07 12:21:10;;;;;;;80.25;43.85;;;4.90;99.90;;;;;;5080262;28;20107;-88
2020/12/07 12:23:38;;;;;;;73.68;40.55;;;4.80;99.90;;;;;;5072408;28;20101;-88
2020/12/07 12:26:04;;;;;;;78.65;41.72;;;4.80;99.90;;;;;;5083343;28;20486;-89
2020/12/07 12:28:30;;;;;;;83.70;44.10;;;4.80;99.90;;;;;;5085361;28;20039;-92
2020/12/07 12:30:56;;;;;;;79.00;41.17;;;4.80;99.90;;;;;;5094328;28;20028;-90
2020/12/07 12:33:22;;;;;;;78.18;41.15;;;4.70;99.90;;;;;;5080169;28;20748;-88
2020/12/07 12:35:48;;;;;;;79.72;41.45;;;4.70;99.90;;;;;;5074879;28;20101;-90
2020/12/07 12:38:14;;;;;;;79.22;41.10;;;4.70;99.90;;;;;;5100072;28;20032;-89
2020/12/07 12:40:40;;;;;;;70.57;37.67;;;4.70;99.90;;;;;;5093770;28;20016;-89
2020/12/07 12:43:05;;;;;;;70.60;39.00;;;4.60;99.90;;;;;;5096904;28;20497;-89
2020/12/07 12:45:31;;;;;;;71.25;37.90;;;4.70;99.90;;;;;;5091458;28;20139;-88
2020/12/07 12:47:57;;;;;;;72.28;38.58;;;4.60;99.90;;;;;;5079397;28;20120;-90
2020/12/07 12:50:22;;;;;;;74.00;39.35;;;4.60;99.90;;;;;;5090799;28;20094;-89
2020/12/07 12:52:57;;;;;;;69.88;37.67;;;4.60;99.90;;;;;;5078332;28;20032;-89
2020/12/07 12:55:23;;;;;;;64.90;36.78;;;4.60;99.90;;;;;;5092828;28;20034;-91
2020/12/07 12:57:55;;;;;;;64.20;35.20;;;4.60;99.90;;;;;;5077509;28;20127;-90
2020/12/07 13:00:23;;;;;;;78.13;39.65;;;4.50;99.90;;;;;;5089276;28;20465;-91
2020/12/07 13:02:49;;;;;;;67.60;36.50;;;4.60;99.90;;;;;;5059503;28;20060;-91
2020/12/07 13:05:14;;;;;;;70.68;35.10;;;4.50;99.90;;;;;;5076719;28;20084;-91
2020/12/07 13:07:41;;;;;;;72.53;37.33;;;4.50;99.90;;;;;;5074630;28;20477;-90
2020/12/07 13:10:07;;;;;;;64.32;34.97;;;4.50;99.90;;;;;;5095334;28;20028;-89
2020/12/07 13:12:32;;;;;;;76.75;38.88;;;4.50;99.90;;;;;;5078524;28;20023;-90
2020/12/07 13:14:58;;;;;;;74.70;38.85;;;4.50;99.90;;;;;;5091141;28;20028;-89
2020/12/07 13:17:27;;;;;;;74.45;39.22;;;4.50;99.90;;;;;;5085823;28;20111;-90
2020/12/07 13:20:00;;;;;;;74.28;39.00;;;4.50;99.90;;;;;;5076873;28;20055;-88
2020/12/07 13:22:50;;;;;;;70.28;36.08;;;4.50;99.90;;;;;;5091784;28;20020;-87
2020/12/07 13:25:21;;;;;;;66.13;36.30;;;4.50;99.90;;;;;;5092887;28;20101;-88
2020/12/07 13:27:52;;;;;;;79.35;40.20;;;4.50;99.90;;;;;;5092812;28;20016;-89
2020/12/07 13:30:19;;;;;;;77.90;40.63;;;4.50;99.90;;;;;;5090988;28;20102;-88
2020/12/07 13:32:45;;;;;;;78.70;39.53;;;4.60;99.90;;;;;;5092717;28;20521;-89
2020/12/07 13:35:11;;;;;;;81.40;43.03;;;4.60;99.90;;;;;;5074587;28;20031;-88
2020/12/07 13:37:36;;;;;;;77.72;41.42;;;4.60;99.90;;;;;;5090707;28;20027;-86
2020/12/07 13:40:05;;;;;;;75.85;41.40;;;4.60;99.90;;;;;;5092440;28;20531;-89
2020/12/07 13:42:30;;;;;;;79.25;41.53;;;4.60;99.90;;;;;;5078752;28;20030;-90